sensor_id;sensor_type;location;lat;lon;timestamp;pressure;altitude;pressure_sealevel;temperature;humidity
72857;BME280;61360;52.134;4.494;2022-08-03T00:00:58;101559.69;;;20.70;74.48
72857;BME280;61360;52.134;4.494;2022-08-03T00:03:24;101558.88;;;20.68;74.80
72857;BME280;61360;52.134;4.494;2022-08-03T00:05:51;101563.38;;;20.67;74.43
72857;BME280;61360;52.134;4.494;2022-08-03T00:08:18;101551.41;;;20.55;75.42
72857;BME280;61360;52.134;4.494;2022-08-03T00:10:45;101547.72;;;20.58;75.48
72857;BME280;61360;52.134;4.494;2022-08-03T00:13:11;101548.69;;;20.57;75.24
72857;BME280;61360;52.134;4.494;2022-08-03T00:15:41;101547.59;;;20.61;75.65
72857;BME280;61360;52.134;4.494;2022-08-03T00:18:08;101544.25;;;20.56;75.18
72857;BME280;61360;52.134;4.494;2022-08-03T00:20:35;101553.16;;;20.57;75.56
72857;BME280;61360;52.134;4.494;2022-08-03T00:23:01;101551.56;;;20.52;75.81
72857;BME280;61360;52.134;4.494;2022-08-03T00:25:29;101542.16;;;20.64;75.62
72857;BME280;61360;52.134;4.494;2022-08-03T00:27:56;101542.56;;;20.55;76.05
72857;BME280;61360;52.134;4.494;2022-08-03T00:30:22;101537.03;;;20.58;75.83
72857;BME280;61360;52.134;4.494;2022-08-03T00:32:49;101536.25;;;20.56;76.00
72857;BME280;61360;52.134;4.494;2022-08-03T00:35:15;101538.06;;;20.55;75.61
72857;BME280;61360;52.134;4.494;2022-08-03T00:37:42;101538.78;;;20.59;75.82
72857;BME280;61360;52.134;4.494;2022-08-03T00:40:12;101530.25;;;20.51;76.00
72857;BME280;61360;52.134;4.494;2022-08-03T00:42:55;101534.03;;;20.47;76.08
72857;BME280;61360;52.134;4.494;2022-08-03T00:45:26;101532.41;;;20.43;76.09
72857;BME280;61360;52.134;4.494;2022-08-03T00:47:54;101530.69;;;20.42;76.36
72857;BME280;61360;52.134;4.494;2022-08-03T00:50:24;101532.00;;;20.33;76.83
72857;BME280;61360;52.134;4.494;2022-08-03T00:52:55;101526.84;;;20.28;76.86
72857;BME280;61360;52.134;4.494;2022-08-03T00:55:24;101522.31;;;20.30;76.57
72857;BME280;61360;52.134;4.494;2022-08-03T00:57:51;101527.38;;;20.36;76.55
72857;BME280;61360;52.134;4.494;2022-08-03T01:00:26;101520.28;;;20.35;76.00
72857;BME280;61360;52.134;4.494;2022-08-03T01:02:53;101525.75;;;20.32;76.05
72857;BME280;61360;52.134;4.494;2022-08-03T01:05:20;101520.59;;;20.29;76.66
72857;BME280;61360;52.134;4.494;2022-08-03T01:08:04;101524.97;;;20.30;76.61
72857;BME280;61360;52.134;4.494;2022-08-03T01:11:06;101521.72;;;20.24;76.44
72857;BME280;61360;52.134;4.494;2022-08-03T01:13:48;101520.25;;;20.16;76.87
72857;BME280;61360;52.134;4.494;2022-08-03T01:16:32;101515.38;;;20.26;76.40
72857;BME280;61360;52.134;4.494;2022-08-03T01:31:39;101509.13;;;20.07;76.47
72857;BME280;61360;52.134;4.494;2022-08-03T01:34:12;101521.00;;;19.99;77.54
72857;BME280;61360;52.134;4.494;2022-08-03T01:36:55;101511.00;;;20.05;77.45
72857;BME280;61360;52.134;4.494;2022-08-03T01:39:37;101514.09;;;19.95;77.33
72857;BME280;61360;52.134;4.494;2022-08-03T01:42:17;101513.28;;;19.93;77.34
72857;BME280;61360;52.134;4.494;2022-08-03T01:44:46;101506.09;;;19.95;77.21
72857;BME280;61360;52.134;4.494;2022-08-03T01:47:19;101510.63;;;19.93;76.98
72857;BME280;61360;52.134;4.494;2022-08-03T01:49:49;101513.44;;;19.90;76.99
72857;BME280;61360;52.134;4.494;2022-08-03T01:52:18;101510.22;;;19.82;76.84
72857;BME280;61360;52.134;4.494;2022-08-03T01:54:49;101513.28;;;19.73;77.13
72857;BME280;61360;52.134;4.494;2022-08-03T01:57:18;101510.47;;;19.76;77.08
72857;BME280;61360;52.134;4.494;2022-08-03T01:59:49;101498.03;;;19.76;77.07
72857;BME280;61360;52.134;4.494;2022-08-03T02:02:19;101498.88;;;19.77;77.56
72857;BME280;61360;52.134;4.494;2022-08-03T02:04:47;101493.78;;;19.71;77.11
72857;BME280;61360;52.134;4.494;2022-08-03T02:07:18;101498.78;;;19.58;77.01
72857;BME280;61360;52.134;4.494;2022-08-03T02:09:49;101499.66;;;19.58;76.59
72857;BME280;61360;52.134;4.494;2022-08-03T02:12:17;101488.31;;;19.53;77.05
72857;BME280;61360;52.134;4.494;2022-08-03T02:14:46;101487.63;;;19.48;77.42
72857;BME280;61360;52.134;4.494;2022-08-03T02:17:15;101491.09;;;19.50;77.63
72857;BME280;61360;52.134;4.494;2022-08-03T02:19:42;101492.31;;;19.43;77.91
72857;BME280;61360;52.134;4.494;2022-08-03T02:22:11;101500.72;;;19.54;77.81
72857;BME280;61360;52.134;4.494;2022-08-03T02:24:39;101492.00;;;19.51;77.93
72857;BME280;61360;52.134;4.494;2022-08-03T02:27:21;101496.09;;;19.37;78.58
72857;BME280;61360;52.134;4.494;2022-08-03T02:29:57;101489.88;;;19.37;78.46
72857;BME280;61360;52.134;4.494;2022-08-03T02:32:30;101479.09;;;19.40;78.37
72857;BME280;61360;52.134;4.494;2022-08-03T02:35:03;101487.09;;;19.40;78.91
72857;BME280;61360;52.134;4.494;2022-08-03T02:37:39;101491.88;;;19.32;78.57
72857;BME280;61360;52.134;4.494;2022-08-03T02:40:10;101483.63;;;19.38;78.14
72857;BME280;61360;52.134;4.494;2022-08-03T02:42:39;101488.16;;;19.36;78.78
72857;BME280;61360;52.134;4.494;2022-08-03T02:45:10;101483.69;;;19.36;78.97
72857;BME280;61360;52.134;4.494;2022-08-03T02:47:40;101484.66;;;19.35;78.89
72857;BME280;61360;52.134;4.494;2022-08-03T02:50:11;101484.78;;;19.53;78.83
72857;BME280;61360;52.134;4.494;2022-08-03T02:52:43;101481.03;;;19.36;78.41
72857;BME280;61360;52.134;4.494;2022-08-03T02:55:13;101474.84;;;19.36;78.37
72857;BME280;61360;52.134;4.494;2022-08-03T02:57:43;101474.78;;;19.37;79.14
72857;BME280;61360;52.134;4.494;2022-08-03T03:00:13;101472.50;;;19.49;78.82
72857;BME280;61360;52.134;4.494;2022-08-03T03:02:41;101464.00;;;19.40;78.82
72857;BME280;61360;52.134;4.494;2022-08-03T03:05:08;101468.38;;;19.41;79.37
72857;BME280;61360;52.134;4.494;2022-08-03T03:07:37;101463.50;;;19.31;79.18
72857;BME280;61360;52.134;4.494;2022-08-03T03:10:06;101474.41;;;19.24;78.95
72857;BME280;61360;52.134;4.494;2022-08-03T03:12:36;101473.81;;;19.18;79.43
72857;BME280;61360;52.134;4.494;2022-08-03T03:15:04;101467.50;;;19.20;79.38
72857;BME280;61360;52.134;4.494;2022-08-03T03:17:32;101473.06;;;19.14;79.27
72857;BME280;61360;52.134;4.494;2022-08-03T03:20:03;101470.66;;;19.08;79.21
72857;BME280;61360;52.134;4.494;2022-08-03T03:22:32;101477.59;;;19.12;79.74
72857;BME280;61360;52.134;4.494;2022-08-03T03:25:01;101473.41;;;19.06;79.54
72857;BME280;61360;52.134;4.494;2022-08-03T03:27:28;101477.91;;;19.04;80.12
72857;BME280;61360;52.134;4.494;2022-08-03T03:29:56;101478.72;;;19.06;80.43
72857;BME280;61360;52.134;4.494;2022-08-03T03:32:26;101481.19;;;19.11;80.47
72857;BME280;61360;52.134;4.494;2022-08-03T03:34:56;101483.72;;;19.14;80.07
72857;BME280;61360;52.134;4.494;2022-08-03T03:37:25;101482.13;;;19.10;80.61
72857;BME280;61360;52.134;4.494;2022-08-03T03:39:53;101487.47;;;19.10;80.65
72857;BME280;61360;52.134;4.494;2022-08-03T03:42:21;101489.06;;;19.14;80.87
72857;BME280;61360;52.134;4.494;2022-08-03T03:44:48;101485.59;;;19.12;80.88
72857;BME280;61360;52.134;4.494;2022-08-03T03:47:15;101490.78;;;19.15;80.93
72857;BME280;61360;52.134;4.494;2022-08-03T03:49:42;101490.63;;;19.20;80.67
72857;BME280;61360;52.134;4.494;2022-08-03T03:52:09;101492.38;;;19.19;80.76
72857;BME280;61360;52.134;4.494;2022-08-03T03:54:43;101489.50;;;19.25;80.19
72857;BME280;61360;52.134;4.494;2022-08-03T03:57:10;101485.19;;;19.21;80.66
72857;BME280;61360;52.134;4.494;2022-08-03T03:59:41;101483.75;;;19.35;80.36
72857;BME280;61360;52.134;4.494;2022-08-03T04:02:09;101482.03;;;19.34;80.23
72857;BME280;61360;52.134;4.494;2022-08-03T04:04:37;101484.72;;;19.34;80.47
72857;BME280;61360;52.134;4.494;2022-08-03T04:07:25;101478.28;;;19.17;80.65
72857;BME280;61360;52.134;4.494;2022-08-03T04:10:19;101483.53;;;19.19;80.83
72857;BME280;61360;52.134;4.494;2022-08-03T04:13:08;101491.34;;;19.23;79.73
72857;BME280;61360;52.134;4.494;2022-08-03T04:15:38;101485.28;;;19.20;80.18
72857;BME280;61360;52.134;4.494;2022-08-03T04:18:12;101485.19;;;19.21;80.31
72857;BME280;61360;52.134;4.494;2022-08-03T04:20:44;101490.91;;;19.12;80.65
72857;BME280;61360;52.134;4.494;2022-08-03T04:23:15;101487.63;;;19.28;79.96
72857;BME280;61360;52.134;4.494;2022-08-03T04:25:45;101484.53;;;19.16;80.01
72857;BME280;61360;52.134;4.494;2022-08-03T04:28:17;101493.19;;;19.21;80.29
72857;BME280;61360;52.134;4.494;2022-08-03T04:30:46;101493.19;;;19.21;80.14
72857;BME280;61360;52.134;4.494;2022-08-03T04:33:16;101490.53;;;19.21;80.35
72857;BME280;61360;52.134;4.494;2022-08-03T04:35:46;101491.19;;;19.27;80.06
72857;BME280;61360;52.134;4.494;2022-08-03T04:38:17;101496.47;;;19.28;79.89
72857;BME280;61360;52.134;4.494;2022-08-03T04:40:45;101501.28;;;19.20;80.40
72857;BME280;61360;52.134;4.494;2022-08-03T04:43:15;101496.69;;;19.23;80.07
72857;BME280;61360;52.134;4.494;2022-08-03T04:45:46;101490.22;;;19.29;80.16
72857;BME280;61360;52.134;4.494;2022-08-03T04:48:15;101498.28;;;19.28;80.20
72857;BME280;61360;52.134;4.494;2022-08-03T04:50:43;101500.22;;;19.24;80.79
72857;BME280;61360;52.134;4.494;2022-08-03T04:53:09;101507.34;;;19.23;80.17
72857;BME280;61360;52.134;4.494;2022-08-03T04:55:36;101506.88;;;19.34;80.25
72857;BME280;61360;52.134;4.494;2022-08-03T04:58:03;101504.84;;;19.41;80.13
72857;BME280;61360;52.134;4.494;2022-08-03T05:00:29;101507.75;;;19.35;79.99
72857;BME280;61360;52.134;4.494;2022-08-03T05:02:56;101511.97;;;19.40;80.17
72857;BME280;61360;52.134;4.494;2022-08-03T05:05:23;101520.34;;;19.31;80.38
72857;BME280;61360;52.134;4.494;2022-08-03T05:07:49;101519.19;;;19.37;80.40
72857;BME280;61360;52.134;4.494;2022-08-03T05:10:16;101525.97;;;19.46;80.30
72857;BME280;61360;52.134;4.494;2022-08-03T05:12:46;101523.41;;;19.65;79.75
72857;BME280;61360;52.134;4.494;2022-08-03T05:15:13;101520.56;;;19.68;79.67
72857;BME280;61360;52.134;4.494;2022-08-03T05:17:40;101527.09;;;19.83;79.75
72857;BME280;61360;52.134;4.494;2022-08-03T05:20:08;101525.69;;;19.94;79.56
72857;BME280;61360;52.134;4.494;2022-08-03T05:22:35;101528.75;;;20.06;79.31
72857;BME280;61360;52.134;4.494;2022-08-03T05:25:02;101527.00;;;20.05;79.17
72857;BME280;61360;52.134;4.494;2022-08-03T05:27:29;101522.34;;;20.10;79.16
72857;BME280;61360;52.134;4.494;2022-08-03T05:29:56;101527.13;;;20.22;78.84
72857;BME280;61360;52.134;4.494;2022-08-03T05:32:22;101529.00;;;20.20;79.23
72857;BME280;61360;52.134;4.494;2022-08-03T05:34:49;101537.13;;;20.17;79.19
72857;BME280;61360;52.134;4.494;2022-08-03T05:37:15;101523.81;;;20.36;78.23
72857;BME280;61360;52.134;4.494;2022-08-03T05:39:42;101527.00;;;20.44;78.34
72857;BME280;61360;52.134;4.494;2022-08-03T05:42:08;101528.25;;;20.56;77.44
72857;BME280;61360;52.134;4.494;2022-08-03T05:44:35;101529.41;;;20.50;77.79
72857;BME280;61360;52.134;4.494;2022-08-03T05:47:04;101536.81;;;20.64;77.34
72857;BME280;61360;52.134;4.494;2022-08-03T05:49:31;101536.91;;;20.61;77.95
72857;BME280;61360;52.134;4.494;2022-08-03T05:51:57;101535.13;;;20.62;77.65
72857;BME280;61360;52.134;4.494;2022-08-03T05:54:23;101528.50;;;20.70;77.77
72857;BME280;61360;52.134;4.494;2022-08-03T05:56:50;101532.91;;;20.71;77.82
72857;BME280;61360;52.134;4.494;2022-08-03T05:59:16;101536.00;;;20.81;77.62
72857;BME280;61360;52.134;4.494;2022-08-03T06:01:43;101524.94;;;20.89;76.74
72857;BME280;61360;52.134;4.494;2022-08-03T06:04:10;101524.22;;;20.85;77.35
72857;BME280;61360;52.134;4.494;2022-08-03T06:06:37;101525.13;;;20.86;77.32
72857;BME280;61360;52.134;4.494;2022-08-03T06:09:03;101521.31;;;21.09;76.57
72857;BME280;61360;52.134;4.494;2022-08-03T06:11:30;101515.41;;;21.02;76.37
72857;BME280;61360;52.134;4.494;2022-08-03T06:13:56;101516.47;;;21.17;75.93
72857;BME280;61360;52.134;4.494;2022-08-03T06:16:23;101517.81;;;21.26;75.61
72857;BME280;61360;52.134;4.494;2022-08-03T06:18:49;101534.56;;;21.29;75.42
72857;BME280;61360;52.134;4.494;2022-08-03T06:21:16;101535.59;;;21.27;75.47
72857;BME280;61360;52.134;4.494;2022-08-03T06:23:43;101532.03;;;21.26;75.45
72857;BME280;61360;52.134;4.494;2022-08-03T06:26:10;101537.50;;;21.42;74.71
72857;BME280;61360;52.134;4.494;2022-08-03T06:28:37;101526.44;;;21.67;73.78
72857;BME280;61360;52.134;4.494;2022-08-03T06:31:04;101526.59;;;21.82;73.43
72857;BME280;61360;52.134;4.494;2022-08-03T06:33:31;101533.22;;;21.92;73.18
72857;BME280;61360;52.134;4.494;2022-08-03T06:35:57;101529.03;;;22.04;73.02
72857;BME280;61360;52.134;4.494;2022-08-03T06:38:24;101529.50;;;22.12;72.13
72857;BME280;61360;52.134;4.494;2022-08-03T06:40:50;101524.03;;;22.31;71.60
72857;BME280;61360;52.134;4.494;2022-08-03T06:43:16;101530.47;;;22.45;71.07
72857;BME280;61360;52.134;4.494;2022-08-03T06:45:43;101530.72;;;22.56;70.31
72857;BME280;61360;52.134;4.494;2022-08-03T06:48:10;101530.16;;;22.67;70.11
72857;BME280;61360;52.134;4.494;2022-08-03T06:50:40;101533.19;;;22.92;68.92
72857;BME280;61360;52.134;4.494;2022-08-03T06:53:07;101530.91;;;22.85;69.21
72857;BME280;61360;52.134;4.494;2022-08-03T06:55:36;101532.13;;;22.79;69.67
72857;BME280;61360;52.134;4.494;2022-08-03T06:58:03;101539.31;;;22.94;69.35
72857;BME280;61360;52.134;4.494;2022-08-03T07:00:30;101533.94;;;22.94;69.16
72857;BME280;61360;52.134;4.494;2022-08-03T07:02:56;101534.38;;;23.03;69.69
72857;BME280;61360;52.134;4.494;2022-08-03T07:05:24;101538.56;;;23.08;69.14
72857;BME280;61360;52.134;4.494;2022-08-03T07:07:55;101546.75;;;23.21;68.87
72857;BME280;61360;52.134;4.494;2022-08-03T07:10:22;101554.09;;;23.18;68.73
72857;BME280;61360;52.134;4.494;2022-08-03T07:12:50;101552.25;;;23.02;69.01
72857;BME280;61360;52.134;4.494;2022-08-03T07:15:17;101553.78;;;23.08;68.86
72857;BME280;61360;52.134;4.494;2022-08-03T07:17:43;101554.19;;;23.16;68.64
72857;BME280;61360;52.134;4.494;2022-08-03T07:20:10;101559.72;;;23.29;68.15
72857;BME280;61360;52.134;4.494;2022-08-03T07:22:38;101567.59;;;23.32;67.94
72857;BME280;61360;52.134;4.494;2022-08-03T07:25:05;101567.84;;;23.27;67.39
72857;BME280;61360;52.134;4.494;2022-08-03T07:27:31;101568.16;;;23.53;66.95
72857;BME280;61360;52.134;4.494;2022-08-03T07:29:58;101571.75;;;23.68;67.04
72857;BME280;61360;52.134;4.494;2022-08-03T07:32:25;101569.75;;;23.71;66.77
72857;BME280;61360;52.134;4.494;2022-08-03T07:34:53;101574.38;;;23.69;67.07
72857;BME280;61360;52.134;4.494;2022-08-03T07:37:20;101578.84;;;23.85;66.58
72857;BME280;61360;52.134;4.494;2022-08-03T07:39:47;101569.97;;;23.99;65.86
72857;BME280;61360;52.134;4.494;2022-08-03T07:42:13;101574.19;;;24.03;65.63
72857;BME280;61360;52.134;4.494;2022-08-03T07:44:40;101581.59;;;24.28;65.25
72857;BME280;61360;52.134;4.494;2022-08-03T07:47:07;101585.66;;;24.50;65.13
72857;BME280;61360;52.134;4.494;2022-08-03T07:49:38;101588.91;;;24.83;64.45
72857;BME280;61360;52.134;4.494;2022-08-03T07:52:06;101582.56;;;24.99;62.99
72857;BME280;61360;52.134;4.494;2022-08-03T07:54:50;101579.91;;;25.26;62.72
72857;BME280;61360;52.134;4.494;2022-08-03T07:57:17;101585.81;;;25.58;60.71
72857;BME280;61360;52.134;4.494;2022-08-03T07:59:45;101586.56;;;25.88;60.17
72857;BME280;61360;52.134;4.494;2022-08-03T08:02:12;101582.16;;;26.00;59.11
72857;BME280;61360;52.134;4.494;2022-08-03T08:04:39;101585.13;;;25.69;60.72
72857;BME280;61360;52.134;4.494;2022-08-03T08:07:06;101577.19;;;25.93;59.58
72857;BME280;61360;52.134;4.494;2022-08-03T08:09:33;101576.50;;;26.17;59.23
72857;BME280;61360;52.134;4.494;2022-08-03T08:12:00;101578.75;;;26.23;58.29
72857;BME280;61360;52.134;4.494;2022-08-03T08:14:27;101580.38;;;26.26;58.81
72857;BME280;61360;52.134;4.494;2022-08-03T08:16:53;101590.03;;;26.80;58.87
72857;BME280;61360;52.134;4.494;2022-08-03T08:19:20;101585.25;;;26.96;57.51
72857;BME280;61360;52.134;4.494;2022-08-03T08:21:46;101586.41;;;27.42;55.58
72857;BME280;61360;52.134;4.494;2022-08-03T08:24:13;101580.50;;;27.37;54.79
72857;BME280;61360;52.134;4.494;2022-08-03T08:26:39;101583.84;;;27.40;54.44
72857;BME280;61360;52.134;4.494;2022-08-03T08:29:05;101572.97;;;27.29;54.32
72857;BME280;61360;52.134;4.494;2022-08-03T08:31:32;101578.53;;;27.02;55.32
72857;BME280;61360;52.134;4.494;2022-08-03T08:33:59;101574.88;;;27.27;56.02
72857;BME280;61360;52.134;4.494;2022-08-03T08:36:32;101564.78;;;27.66;53.87
72857;BME280;61360;52.134;4.494;2022-08-03T08:39:00;101568.22;;;28.04;53.33
72857;BME280;61360;52.134;4.494;2022-08-03T08:41:27;101565.69;;;28.13;54.55
72857;BME280;61360;52.134;4.494;2022-08-03T08:43:54;101569.22;;;28.25;53.46
72857;BME280;61360;52.134;4.494;2022-08-03T08:46:20;101576.00;;;28.31;52.89
72857;BME280;61360;52.134;4.494;2022-08-03T08:48:48;101571.34;;;27.51;55.42
72857;BME280;61360;52.134;4.494;2022-08-03T08:51:18;101580.63;;;28.06;53.64
72857;BME280;61360;52.134;4.494;2022-08-03T08:53:50;101575.50;;;28.26;54.07
72857;BME280;61360;52.134;4.494;2022-08-03T08:56:19;101581.03;;;27.77;53.65
72857;BME280;61360;52.134;4.494;2022-08-03T08:58:57;101579.31;;;28.23;53.43
72857;BME280;61360;52.134;4.494;2022-08-03T09:01:26;101581.53;;;28.97;51.59
72857;BME280;61360;52.134;4.494;2022-08-03T09:03:53;101584.59;;;28.25;51.84
72857;BME280;61360;52.134;4.494;2022-08-03T09:06:23;101585.84;;;28.43;53.23
72857;BME280;61360;52.134;4.494;2022-08-03T09:08:49;101585.88;;;28.77;51.30
72857;BME280;61360;52.134;4.494;2022-08-03T09:11:20;101588.03;;;29.17;50.55
72857;BME280;61360;52.134;4.494;2022-08-03T09:13:48;101586.34;;;28.82;50.55
72857;BME280;61360;52.134;4.494;2022-08-03T09:16:18;101595.34;;;29.38;50.50
72857;BME280;61360;52.134;4.494;2022-08-03T09:18:48;101599.84;;;29.05;50.33
72857;BME280;61360;52.134;4.494;2022-08-03T09:23:57;101593.66;;;30.11;46.92
72857;BME280;61360;52.134;4.494;2022-08-03T09:26:28;101604.47;;;30.01;48.56
72857;BME280;61360;52.134;4.494;2022-08-03T09:31:35;101592.53;;;29.39;50.59
72857;BME280;61360;52.134;4.494;2022-08-03T09:34:05;101599.06;;;29.37;49.71
72857;BME280;61360;52.134;4.494;2022-08-03T09:39:20;101587.00;;;30.36;46.31
72857;BME280;61360;52.134;4.494;2022-08-03T09:42:14;101589.06;;;30.54;46.35
72857;BME280;61360;52.134;4.494;2022-08-03T09:44:49;101589.34;;;30.51;46.76
72857;BME280;61360;52.134;4.494;2022-08-03T09:47:33;101581.31;;;30.39;45.98
72857;BME280;61360;52.134;4.494;2022-08-03T09:50:08;101584.16;;;30.38;46.89
72857;BME280;61360;52.134;4.494;2022-08-03T09:52:37;101581.16;;;30.41;46.25
72857;BME280;61360;52.134;4.494;2022-08-03T09:55:09;101575.75;;;30.82;45.59
72857;BME280;61360;52.134;4.494;2022-08-03T09:57:40;101581.56;;;30.67;46.29
72857;BME280;61360;52.134;4.494;2022-08-03T10:00:13;101586.66;;;30.61;46.10
72857;BME280;61360;52.134;4.494;2022-08-03T10:02:43;101590.41;;;31.10;45.09
72857;BME280;61360;52.134;4.494;2022-08-03T10:05:12;101584.31;;;31.47;43.90
72857;BME280;61360;52.134;4.494;2022-08-03T10:07:48;101586.47;;;31.43;43.17
72857;BME280;61360;52.134;4.494;2022-08-03T10:10:16;101592.66;;;30.95;44.88
72857;BME280;61360;52.134;4.494;2022-08-03T10:12:44;101594.00;;;30.80;46.10
72857;BME280;61360;52.134;4.494;2022-08-03T10:15:11;101583.72;;;31.33;44.79
72857;BME280;61360;52.134;4.494;2022-08-03T10:17:38;101590.31;;;31.70;44.63
72857;BME280;61360;52.134;4.494;2022-08-03T10:20:05;101583.16;;;31.88;43.54
72857;BME280;61360;52.134;4.494;2022-08-03T10:22:34;101590.72;;;32.14;43.81
72857;BME280;61360;52.134;4.494;2022-08-03T10:25:11;101591.34;;;31.69;43.87
72857;BME280;61360;52.134;4.494;2022-08-03T10:27:41;101587.88;;;31.86;44.42
72857;BME280;61360;52.134;4.494;2022-08-03T10:30:10;101588.13;;;32.22;43.30
72857;BME280;61360;52.134;4.494;2022-08-03T10:32:43;101593.88;;;32.10;42.61
72857;BME280;61360;52.134;4.494;2022-08-03T10:35:19;101580.28;;;32.47;43.31
72857;BME280;61360;52.134;4.494;2022-08-03T10:37:51;101579.63;;;32.73;42.72
72857;BME280;61360;52.134;4.494;2022-08-03T10:40:26;101588.44;;;32.85;42.16
72857;BME280;61360;52.134;4.494;2022-08-03T10:43:08;101584.84;;;32.56;42.49
72857;BME280;61360;52.134;4.494;2022-08-03T10:45:42;101591.59;;;31.85;44.28
72857;BME280;61360;52.134;4.494;2022-08-03T10:48:10;101584.69;;;32.01;44.76
72857;BME280;61360;52.134;4.494;2022-08-03T10:50:38;101587.44;;;32.58;42.49
72857;BME280;61360;52.134;4.494;2022-08-03T10:53:08;101581.47;;;32.44;43.18
72857;BME280;61360;52.134;4.494;2022-08-03T10:55:43;101586.13;;;32.90;42.83
72857;BME280;61360;52.134;4.494;2022-08-03T11:01:11;101581.72;;;33.07;42.18
72857;BME280;61360;52.134;4.494;2022-08-03T11:06:21;101574.25;;;32.91;41.35
72857;BME280;61360;52.134;4.494;2022-08-03T11:11:40;101564.59;;;32.96;41.23
72857;BME280;61360;52.134;4.494;2022-08-03T11:14:18;101561.34;;;33.11;40.34
72857;BME280;61360;52.134;4.494;2022-08-03T11:17:05;101558.16;;;32.97;41.51
72857;BME280;61360;52.134;4.494;2022-08-03T11:19:44;101563.84;;;33.04;42.16
72857;BME280;61360;52.134;4.494;2022-08-03T11:22:15;101563.56;;;33.25;41.02
72857;BME280;61360;52.134;4.494;2022-08-03T11:35:11;101554.31;;;32.90;39.42
72857;BME280;61360;52.134;4.494;2022-08-03T11:40:44;101564.56;;;33.78;37.55
72857;BME280;61360;52.134;4.494;2022-08-03T11:48:44;101557.44;;;33.85;37.36
72857;BME280;61360;52.134;4.494;2022-08-03T11:51:20;101550.97;;;33.24;36.45
72857;BME280;61360;52.134;4.494;2022-08-03T11:53:55;101557.97;;;33.45;39.56
72857;BME280;61360;52.134;4.494;2022-08-03T11:56:22;101558.84;;;33.89;38.84
72857;BME280;61360;52.134;4.494;2022-08-03T11:58:54;101556.06;;;33.81;39.74
72857;BME280;61360;52.134;4.494;2022-08-03T12:01:23;101556.44;;;33.86;39.77
72857;BME280;61360;52.134;4.494;2022-08-03T12:03:51;101559.75;;;33.98;37.30
72857;BME280;61360;52.134;4.494;2022-08-03T12:06:17;101555.09;;;33.90;38.67
72857;BME280;61360;52.134;4.494;2022-08-03T12:08:45;101565.69;;;33.67;38.53
72857;BME280;61360;52.134;4.494;2022-08-03T12:11:13;101563.56;;;34.05;36.71
72857;BME280;61360;52.134;4.494;2022-08-03T12:13:46;101555.28;;;33.53;38.03
72857;BME280;61360;52.134;4.494;2022-08-03T12:16:21;101556.38;;;33.60;38.19
72857;BME280;61360;52.134;4.494;2022-08-03T12:18:58;101552.03;;;33.67;37.79
72857;BME280;61360;52.134;4.494;2022-08-03T12:21:27;101558.97;;;33.44;38.65
72857;BME280;61360;52.134;4.494;2022-08-03T12:23:59;101551.31;;;33.47;38.80
72857;BME280;61360;52.134;4.494;2022-08-03T12:26:30;101542.66;;;33.70;37.38
72857;BME280;61360;52.134;4.494;2022-08-03T12:29:21;101548.22;;;33.60;37.73
72857;BME280;61360;52.134;4.494;2022-08-03T12:31:51;101545.44;;;33.96;36.41
72857;BME280;61360;52.134;4.494;2022-08-03T12:34:18;101543.06;;;33.39;37.57
72857;BME280;61360;52.134;4.494;2022-08-03T12:36:53;101542.03;;;34.02;37.53
72857;BME280;61360;52.134;4.494;2022-08-03T12:39:25;101537.75;;;33.73;37.26
72857;BME280;61360;52.134;4.494;2022-08-03T12:41:55;101537.59;;;33.75;38.57
72857;BME280;61360;52.134;4.494;2022-08-03T12:44:34;101537.50;;;33.85;37.46
72857;BME280;61360;52.134;4.494;2022-08-03T12:47:03;101541.03;;;34.03;37.40
72857;BME280;61360;52.134;4.494;2022-08-03T12:49:45;101543.72;;;33.95;35.92
72857;BME280;61360;52.134;4.494;2022-08-03T12:52:12;101545.66;;;34.29;36.04
72857;BME280;61360;52.134;4.494;2022-08-03T12:54:39;101555.03;;;34.08;34.23
72857;BME280;61360;52.134;4.494;2022-08-03T12:57:11;101551.16;;;33.67;35.19
72857;BME280;61360;52.134;4.494;2022-08-03T12:59:42;101550.28;;;33.66;36.42
72857;BME280;61360;52.134;4.494;2022-08-03T13:02:20;101547.19;;;33.61;35.99
72857;BME280;61360;52.134;4.494;2022-08-03T13:04:50;101542.69;;;33.52;35.28
72857;BME280;61360;52.134;4.494;2022-08-03T13:07:18;101552.88;;;33.14;36.24
72857;BME280;61360;52.134;4.494;2022-08-03T13:09:51;101552.97;;;33.40;36.69
72857;BME280;61360;52.134;4.494;2022-08-03T13:12:24;101553.44;;;33.35;35.87
72857;BME280;61360;52.134;4.494;2022-08-03T13:14:55;101547.88;;;34.07;34.73
72857;BME280;61360;52.134;4.494;2022-08-03T13:17:23;101538.72;;;34.17;35.69
72857;BME280;61360;52.134;4.494;2022-08-03T13:19:54;101540.56;;;34.16;34.84
72857;BME280;61360;52.134;4.494;2022-08-03T13:22:25;101538.47;;;34.02;35.32
72857;BME280;61360;52.134;4.494;2022-08-03T13:24:56;101546.06;;;33.90;35.06
72857;BME280;61360;52.134;4.494;2022-08-03T13:27:24;101542.09;;;33.66;35.69
72857;BME280;61360;52.134;4.494;2022-08-03T13:29:50;101536.97;;;33.63;35.84
72857;BME280;61360;52.134;4.494;2022-08-03T13:32:18;101541.44;;;33.28;36.91
72857;BME280;61360;52.134;4.494;2022-08-03T13:34:46;101539.25;;;33.14;37.06
72857;BME280;61360;52.134;4.494;2022-08-03T13:37:13;101537.84;;;33.10;36.54
72857;BME280;61360;52.134;4.494;2022-08-03T13:39:41;101530.13;;;33.41;36.17
72857;BME280;61360;52.134;4.494;2022-08-03T13:42:08;101525.84;;;33.75;36.29
72857;BME280;61360;52.134;4.494;2022-08-03T13:44:35;101523.88;;;33.85;36.66
72857;BME280;61360;52.134;4.494;2022-08-03T13:47:02;101523.16;;;34.09;36.33
72857;BME280;61360;52.134;4.494;2022-08-03T13:49:29;101519.59;;;33.82;36.08
72857;BME280;61360;52.134;4.494;2022-08-03T13:51:56;101524.34;;;34.06;36.69